createdAt,value
2022-11-27T00:00:38.687Z,5.49
2022-11-27T00:01:38.611Z,5.55
2022-11-27T00:02:40.710Z,5.56
2022-11-27T00:03:38.634Z,5.62
2022-11-27T00:04:38.643Z,5.56
2022-11-27T00:05:38.524Z,5.48
2022-11-27T00:06:38.850Z,5.52
2022-11-27T00:07:38.533Z,5.56
2022-11-27T00:08:38.456Z,5.55
2022-11-27T00:09:38.899Z,5.49
2022-11-27T00:10:38.536Z,5.59
2022-11-27T00:11:38.519Z,5.52
2022-11-27T00:12:38.492Z,5.55
2022-11-27T00:13:38.484Z,5.48
2022-11-27T00:14:38.532Z,5.58
2022-11-27T00:15:39.338Z,5.41
2022-11-27T00:16:38.440Z,5.60
2022-11-27T00:17:38.504Z,5.55
2022-11-27T00:18:38.468Z,5.59
2022-11-27T00:19:38.914Z,5.47
2022-11-27T00:20:38.424Z,5.52
2022-11-27T00:21:38.372Z,5.52
2022-11-27T00:22:38.708Z,5.48
2022-11-27T00:23:38.436Z,5.55
2022-11-27T00:24:38.579Z,5.56
2022-11-27T00:25:38.508Z,5.55
2022-11-27T00:26:38.627Z,5.65
2022-11-27T00:27:38.342Z,5.56
2022-11-27T00:28:38.433Z,5.56
2022-11-27T00:29:38.401Z,5.52
2022-11-27T00:30:38.289Z,5.51
2022-11-27T00:31:38.527Z,5.60
2022-11-27T00:32:38.376Z,5.56
2022-11-27T00:33:38.401Z,5.62
2022-11-27T00:34:38.434Z,5.56
2022-11-27T00:35:38.297Z,5.59
2022-11-27T00:36:38.283Z,5.63
2022-11-27T00:37:38.124Z,5.66
2022-11-27T00:38:39.145Z,5.56
2022-11-27T00:39:38.241Z,5.59
2022-11-27T00:40:38.126Z,5.58
2022-11-27T00:41:38.264Z,5.63
2022-11-27T00:42:38.266Z,5.62
2022-11-27T00:43:43.983Z,5.74
2022-11-27T00:44:40.523Z,5.73
2022-11-27T00:45:38.290Z,5.66
2022-11-27T00:46:38.028Z,5.67
2022-11-27T00:47:38.742Z,5.67
2022-11-27T00:48:38.071Z,5.75
2022-11-27T00:49:38.750Z,5.66
2022-11-27T00:50:38.846Z,5.75
2022-11-27T00:51:38.205Z,5.75
2022-11-27T00:52:38.307Z,5.74
2022-11-27T00:53:38.006Z,5.75
2022-11-27T00:54:38.219Z,5.60
2022-11-27T00:55:38.039Z,5.66
2022-11-27T00:56:38.123Z,5.73
2022-11-27T00:57:38.095Z,5.78
2022-11-27T00:58:39.009Z,5.77
2022-11-27T00:59:38.137Z,5.75
2022-11-27T01:00:38.074Z,5.74
2022-11-27T01:01:38.147Z,5.69
2022-11-27T01:02:38.068Z,5.69
2022-11-27T01:03:38.065Z,5.84
2022-11-27T01:04:38.041Z,5.77
2022-11-27T01:05:37.948Z,5.60
2022-11-27T01:06:37.984Z,5.63
2022-11-27T01:07:38.026Z,5.63
2022-11-27T01:08:38.740Z,5.56
2022-11-27T01:09:37.988Z,5.58
2022-11-27T01:10:37.921Z,5.60
2022-11-27T01:11:38.260Z,5.60
2022-11-27T01:12:38.102Z,5.58
2022-11-27T01:13:37.774Z,5.60
2022-11-27T01:14:37.907Z,5.65
2022-11-27T01:15:37.777Z,5.74
2022-11-27T01:16:42.058Z,5.69
2022-11-27T01:17:39.804Z,5.78
2022-11-27T01:18:37.577Z,5.63
2022-11-27T01:19:37.697Z,5.67
2022-11-27T01:20:37.589Z,5.58
2022-11-27T01:21:38.545Z,5.66
2022-11-27T01:22:37.640Z,5.60
2022-11-27T01:23:37.637Z,5.66
2022-11-27T01:24:38.082Z,5.62
2022-11-27T01:25:37.755Z,5.66
2022-11-27T01:26:37.617Z,5.52
2022-11-27T01:27:37.569Z,5.58
2022-11-27T01:28:37.905Z,5.69
2022-11-27T01:29:37.560Z,5.69
2022-11-27T01:30:37.520Z,5.69
2022-11-27T01:31:37.594Z,5.66
2022-11-27T01:32:37.597Z,5.60
2022-11-27T01:33:37.642Z,5.69
2022-11-27T01:34:37.922Z,5.74
2022-11-27T01:35:37.541Z,5.65
2022-11-27T01:36:37.470Z,5.62
2022-11-27T01:37:37.568Z,5.60
2022-11-27T01:38:37.433Z,5.56
2022-11-27T01:39:37.694Z,5.58
2022-11-27T01:40:37.454Z,5.66
2022-11-27T01:41:37.484Z,5.60
2022-11-27T01:42:37.521Z,5.67
2022-11-27T01:43:37.395Z,5.63
2022-11-27T01:44:37.578Z,5.59
2022-11-27T01:45:37.329Z,5.56
2022-11-27T01:46:37.518Z,5.49
2022-11-27T01:47:37.343Z,5.52
2022-11-27T01:48:37.399Z,5.49
2022-11-27T01:49:37.388Z,5.44
2022-11-27T01:50:37.250Z,5.59
2022-11-27T01:51:37.334Z,5.65
2022-11-27T01:52:37.299Z,5.58
2022-11-27T01:53:37.303Z,5.52
2022-11-27T01:54:37.514Z,5.59
2022-11-27T01:55:37.398Z,5.59
2022-11-27T01:56:37.334Z,5.49
2022-11-27T01:57:37.407Z,5.44
2022-11-27T01:58:37.262Z,5.48
2022-11-27T01:59:38.150Z,5.47
2022-11-27T02:00:37.248Z,5.41
2022-11-27T02:01:37.225Z,5.49
2022-11-27T02:02:37.271Z,5.37
2022-11-27T02:03:38.059Z,5.47
2022-11-27T02:04:37.285Z,5.35
2022-11-27T02:05:37.152Z,5.37
2022-11-27T02:06:37.119Z,5.38
2022-11-27T02:07:37.260Z,5.45
2022-11-27T02:08:37.159Z,5.41
2022-11-27T02:09:37.138Z,5.30
2022-11-27T02:10:37.095Z,5.24
2022-11-27T02:11:37.119Z,5.33
2022-11-27T02:12:37.127Z,5.30
2022-11-27T02:13:37.063Z,5.32
2022-11-27T02:14:37.040Z,5.20
2022-11-27T02:15:37.159Z,5.30
2022-11-27T02:16:37.104Z,5.24
2022-11-27T02:17:37.067Z,5.32
2022-11-27T02:18:36.976Z,5.32
2022-11-27T02:19:36.972Z,5.23
2022-11-27T02:20:36.933Z,5.27
2022-11-27T02:21:37.083Z,5.24
2022-11-27T02:22:36.964Z,5.33
2022-11-27T02:23:36.919Z,5.27
2022-11-27T02:24:37.009Z,5.29
2022-11-27T02:25:36.935Z,5.30
2022-11-27T02:26:36.877Z,5.30
2022-11-27T02:27:36.939Z,5.40
2022-11-27T02:28:37.038Z,5.26
2022-11-27T02:29:36.837Z,5.26
2022-11-27T02:30:36.894Z,5.30
2022-11-27T02:31:36.926Z,5.37
2022-11-27T02:32:37.903Z,5.27
2022-11-27T02:33:36.831Z,5.44
2022-11-27T02:34:37.086Z,5.41
2022-11-27T02:35:36.824Z,5.35
2022-11-27T02:36:36.885Z,5.30
2022-11-27T02:37:36.861Z,5.27
2022-11-27T02:38:36.841Z,5.24
2022-11-27T02:39:36.802Z,5.32
2022-11-27T02:40:36.796Z,5.32
2022-11-27T02:41:36.772Z,5.37
2022-11-27T02:42:36.767Z,5.37
2022-11-27T02:43:37.142Z,5.30
2022-11-27T02:44:36.890Z,5.41
2022-11-27T02:45:36.775Z,5.38
2022-11-27T02:46:36.795Z,5.30
2022-11-27T02:47:36.757Z,5.26
2022-11-27T02:48:36.749Z,5.24
2022-11-27T02:49:36.645Z,5.24
2022-11-27T02:50:36.658Z,5.12
2022-11-27T02:51:36.645Z,5.19
2022-11-27T02:52:36.634Z,5.02
2022-11-27T02:53:36.649Z,5.26
2022-11-27T02:54:36.742Z,5.19
2022-11-27T02:55:36.650Z,5.08
2022-11-27T02:56:36.609Z,5.23
2022-11-27T02:57:36.605Z,5.20
2022-11-27T02:58:36.826Z,5.12
2022-11-27T02:59:36.601Z,5.19
2022-11-27T03:00:36.594Z,5.17
2022-11-27T03:01:36.554Z,5.11
2022-11-27T03:02:36.596Z,5.06
2022-11-27T03:03:36.591Z,5.08
2022-11-27T03:04:36.514Z,5.08
2022-11-27T03:05:36.665Z,5.19
2022-11-27T03:06:36.518Z,5.14
2022-11-27T03:07:36.447Z,5.17
2022-11-27T03:08:36.489Z,5.02
2022-11-27T03:09:36.466Z,5.12
2022-11-27T03:10:36.443Z,5.14
2022-11-27T03:11:36.398Z,5.09
2022-11-27T03:12:36.570Z,5.14
2022-11-27T03:13:36.408Z,5.14
2022-11-27T03:14:36.442Z,5.14
2022-11-27T03:15:36.383Z,5.02
2022-11-27T03:16:36.461Z,5.01
2022-11-27T03:17:36.348Z,5.04
2022-11-27T03:18:36.390Z,5.11
2022-11-27T03:19:36.375Z,5.08
2022-11-27T03:20:36.366Z,5.04
2022-11-27T03:21:36.507Z,5.11
2022-11-27T03:22:36.337Z,5.06
2022-11-27T03:23:36.255Z,5.11
2022-11-27T03:24:36.264Z,5.12
2022-11-27T03:25:36.279Z,5.11
2022-11-27T03:26:36.369Z,5.12
2022-11-27T03:27:36.183Z,5.08
2022-11-27T03:28:36.327Z,5.12
2022-11-27T03:29:36.242Z,5.06
2022-11-27T03:30:36.279Z,5.01
2022-11-27T03:31:37.182Z,5.05
2022-11-27T03:32:36.192Z,5.06
2022-11-27T03:33:36.219Z,5.01
2022-11-27T03:34:36.204Z,5.06
2022-11-27T03:35:36.179Z,5.02
2022-11-27T03:36:36.135Z,5.02
2022-11-27T03:37:36.257Z,5.02
2022-11-27T03:38:36.200Z,4.97
2022-11-27T03:39:36.139Z,5.05
2022-11-27T03:40:36.159Z,5.05
2022-11-27T03:41:36.152Z,5.04
2022-11-27T03:42:36.160Z,5.02
2022-11-27T03:43:36.186Z,5.05
2022-11-27T03:44:36.100Z,5.05
2022-11-27T03:45:36.122Z,5.17
2022-11-27T03:46:36.190Z,5.12
2022-11-27T03:47:36.188Z,5.19
2022-11-27T03:48:35.974Z,5.12
2022-11-27T03:49:36.152Z,5.14
2022-11-27T03:50:36.028Z,5.11
2022-11-27T03:51:35.997Z,5.20
2022-11-27T03:52:36.027Z,5.11
2022-11-27T03:53:35.970Z,5.19
2022-11-27T03:54:35.941Z,5.14
2022-11-27T03:55:36.092Z,5.14
2022-11-27T03:56:36.013Z,5.14
2022-11-27T03:57:35.892Z,5.22
2022-11-27T03:58:35.898Z,5.14
2022-11-27T03:59:35.928Z,5.19
2022-11-27T04:00:35.956Z,5.11
2022-11-27T04:01:36.566Z,5.14
2022-11-27T04:02:41.755Z,5.24
2022-11-27T04:03:37.023Z,5.20
2022-11-27T04:04:36.035Z,5.15
2022-11-27T04:05:35.873Z,5.12
2022-11-27T04:06:35.819Z,5.14
2022-11-27T04:07:37.081Z,5.15
2022-11-27T04:08:35.857Z,5.11
2022-11-27T04:09:35.821Z,5.05
2022-11-27T04:10:35.767Z,5.02
2022-11-27T04:11:35.775Z,5.05
2022-11-27T04:12:35.739Z,5.05
2022-11-27T04:13:35.719Z,5.14
2022-11-27T04:14:35.834Z,4.99
2022-11-27T04:15:35.647Z,5.05
2022-11-27T04:16:35.902Z,5.17
2022-11-27T04:17:35.848Z,5.12
2022-11-27T04:18:35.704Z,5.05
2022-11-27T04:19:35.713Z,5.06
2022-11-27T04:20:35.644Z,5.11
2022-11-27T04:21:35.783Z,5.11
2022-11-27T04:22:35.684Z,5.12
2022-11-27T04:23:35.680Z,5.09
2022-11-27T04:24:35.649Z,5.06
2022-11-27T04:25:35.618Z,5.05
2022-11-27T04:26:35.614Z,5.06
2022-11-27T04:27:35.558Z,5.08
2022-11-27T04:28:35.643Z,5.08
2022-11-27T04:29:35.607Z,5.14
2022-11-27T04:30:35.575Z,5.12
2022-11-27T04:31:35.597Z,5.19
2022-11-27T04:32:35.607Z,5.11
2022-11-27T04:33:35.519Z,5.15
2022-11-27T04:34:35.566Z,5.15
2022-11-27T04:35:35.694Z,5.14
2022-11-27T04:36:39.209Z,5.08
2022-11-27T04:37:36.504Z,5.14
2022-11-27T04:38:35.447Z,5.17
2022-11-27T04:39:35.456Z,5.14
2022-11-27T04:40:35.423Z,5.06
2022-11-27T04:41:35.491Z,5.17
2022-11-27T04:42:35.452Z,5.05
2022-11-27T04:43:35.372Z,5.12
2022-11-27T04:44:35.544Z,5.14
2022-11-27T04:45:35.388Z,5.08
2022-11-27T04:46:35.512Z,5.06
2022-11-27T04:47:35.348Z,5.06
2022-11-27T04:48:35.556Z,5.06
2022-11-27T04:49:35.319Z,5.02
2022-11-27T04:50:35.336Z,5.09
2022-11-27T04:51:35.376Z,5.01
2022-11-27T04:52:35.341Z,5.05
2022-11-27T04:53:35.321Z,5.06
2022-11-27T04:54:35.328Z,4.96
2022-11-27T04:55:35.275Z,5.08
2022-11-27T04:56:36.023Z,4.99
2022-11-27T04:57:35.368Z,4.96
2022-11-27T04:58:35.305Z,5.02
2022-11-27T04:59:35.269Z,5.02
2022-11-27T05:00:35.303Z,5.05
2022-11-27T05:01:35.260Z,5.06
2022-11-27T05:02:36.205Z,5.02
2022-11-27T05:03:35.209Z,5.02
2022-11-27T05:04:35.271Z,5.04
2022-11-27T05:05:35.202Z,5.09
2022-11-27T05:06:35.144Z,5.11
2022-11-27T05:07:35.324Z,5.06
2022-11-27T05:08:35.265Z,5.12
2022-11-27T05:09:35.223Z,5.14
2022-11-27T05:10:35.128Z,5.14
2022-11-27T05:11:35.180Z,5.04
2022-11-27T05:12:35.103Z,5.15
2022-11-27T05:13:35.142Z,5.12
2022-11-27T05:14:35.096Z,5.05
2022-11-27T05:15:35.057Z,5.11
2022-11-27T05:16:35.101Z,5.14
2022-11-27T05:17:35.053Z,5.08
2022-11-27T05:18:34.993Z,5.09
2022-11-27T05:19:35.982Z,5.08
2022-11-27T05:20:35.062Z,5.12
2022-11-27T05:21:35.141Z,5.11
2022-11-27T05:22:34.982Z,5.09
2022-11-27T05:23:35.101Z,5.11
2022-11-27T05:24:34.968Z,5.04
2022-11-27T05:25:34.993Z,5.05
2022-11-27T05:26:34.914Z,5.09
2022-11-27T05:27:35.041Z,5.08
2022-11-27T05:28:34.937Z,5.05
2022-11-27T05:29:35.469Z,5.09
2022-11-27T05:30:35.000Z,5.06
2022-11-27T05:31:35.084Z,5.08
2022-11-27T05:32:34.801Z,5.04
2022-11-27T05:33:35.057Z,5.05
2022-11-27T05:34:35.039Z,5.06
2022-11-27T05:35:34.942Z,5.06
2022-11-27T05:36:34.865Z,5.04
2022-11-27T05:37:34.800Z,5.02
2022-11-27T05:38:34.873Z,5.01
2022-11-27T05:39:35.973Z,5.05
2022-11-27T05:40:34.813Z,4.97
2022-11-27T05:41:34.809Z,5.05
2022-11-27T05:42:34.822Z,4.91
2022-11-27T05:43:34.855Z,5.01
2022-11-27T05:44:34.845Z,4.97
2022-11-27T05:45:34.990Z,5.02
2022-11-27T05:46:34.956Z,5.04
2022-11-27T05:47:34.721Z,5.08
2022-11-27T05:48:34.963Z,4.99
2022-11-27T05:49:34.833Z,4.96
2022-11-27T05:50:34.681Z,5.05
2022-11-27T05:51:34.800Z,5.02
2022-11-27T05:52:34.691Z,5.06
2022-11-27T05:53:34.810Z,4.93
2022-11-27T05:54:34.840Z,5.05
2022-11-27T05:55:34.810Z,5.02
2022-11-27T05:56:34.647Z,5.05
2022-11-27T05:57:35.589Z,5.08
2022-11-27T05:58:34.662Z,5.04
2022-11-27T05:59:34.722Z,4.83
2022-11-27T06:00:34.667Z,4.99
2022-11-27T06:01:34.628Z,5.02
2022-11-27T06:02:34.757Z,5.06
2022-11-27T06:03:35.638Z,5.05
2022-11-27T06:04:34.864Z,5.08
2022-11-27T06:05:34.667Z,4.99
2022-11-27T06:06:34.573Z,5.05
2022-11-27T06:07:34.661Z,5.11
2022-11-27T06:08:34.514Z,5.04
2022-11-27T06:09:34.539Z,5.06
2022-11-27T06:10:34.576Z,5.08
2022-11-27T06:11:34.558Z,5.11
2022-11-27T06:12:34.599Z,5.09
2022-11-27T06:13:34.459Z,5.06
2022-11-27T06:14:34.664Z,5.12
2022-11-27T06:15:34.608Z,5.14
2022-11-27T06:16:34.656Z,5.09
2022-11-27T06:17:34.527Z,5.15
2022-11-27T06:18:34.557Z,5.14
2022-11-27T06:19:34.447Z,5.26
2022-11-27T06:20:34.363Z,5.17
2022-11-27T06:21:34.330Z,5.24
2022-11-27T06:22:34.367Z,5.17
2022-11-27T06:23:34.285Z,5.23
2022-11-27T06:24:34.363Z,5.27
2022-11-27T06:25:34.407Z,5.19
2022-11-27T06:26:34.350Z,5.26
2022-11-27T06:27:34.355Z,5.20
2022-11-27T06:28:35.364Z,5.29
2022-11-27T06:29:34.240Z,5.27
2022-11-27T06:30:34.285Z,5.30
2022-11-27T06:31:34.408Z,5.29
2022-11-27T06:32:34.292Z,5.22
2022-11-27T06:33:34.419Z,5.20
2022-11-27T06:34:34.264Z,5.20
2022-11-27T06:35:34.167Z,5.30
2022-11-27T06:36:34.237Z,5.22
2022-11-27T06:37:34.192Z,5.27
2022-11-27T06:38:34.177Z,5.20
2022-11-27T06:39:34.173Z,5.20
2022-11-27T06:40:34.416Z,5.19
2022-11-27T06:41:34.286Z,5.15
2022-11-27T06:42:34.251Z,5.29
2022-11-27T06:43:34.200Z,5.26
2022-11-27T06:44:34.334Z,5.19
2022-11-27T06:45:34.128Z,5.26
2022-11-27T06:46:34.254Z,5.20
2022-11-27T06:47:34.173Z,5.23
2022-11-27T06:48:34.040Z,5.19
2022-11-27T06:49:34.092Z,5.11
2022-11-27T06:50:34.109Z,5.14
2022-11-27T06:51:34.089Z,5.14
2022-11-27T06:52:38.808Z,5.14
2022-11-27T06:53:36.059Z,5.06
2022-11-27T06:54:34.003Z,5.11
2022-11-27T06:55:33.910Z,5.12
2022-11-27T06:56:34.093Z,5.12
2022-11-27T06:57:33.984Z,5.11
2022-11-27T06:58:34.027Z,5.20
2022-11-27T06:59:34.054Z,5.12
2022-11-27T07:00:34.077Z,5.11
2022-11-27T07:01:34.076Z,5.11
2022-11-27T07:02:34.121Z,5.17
2022-11-27T07:03:33.901Z,5.11
2022-11-27T07:04:34.066Z,5.11
2022-11-27T07:05:33.958Z,5.19
2022-11-27T07:06:33.882Z,5.14
2022-11-27T07:07:36.748Z,5.11
2022-11-27T07:08:33.961Z,5.11
2022-11-27T07:09:33.977Z,5.22
2022-11-27T07:10:34.034Z,5.23
2022-11-27T07:11:33.928Z,5.19
2022-11-27T07:12:33.887Z,5.14
2022-11-27T07:13:33.883Z,5.09
2022-11-27T07:14:33.813Z,5.23
2022-11-27T07:15:33.874Z,5.24
2022-11-27T07:16:33.824Z,5.14
2022-11-27T07:17:34.017Z,5.15
2022-11-27T07:18:33.814Z,5.04
2022-11-27T07:19:33.842Z,5.06
2022-11-27T07:20:33.817Z,5.06
2022-11-27T07:21:33.842Z,5.11
2022-11-27T07:22:33.706Z,5.08
2022-11-27T07:23:33.663Z,5.22
2022-11-27T07:24:33.822Z,5.33
2022-11-27T07:25:33.686Z,5.47
2022-11-27T07:26:33.742Z,5.49
2022-11-27T07:27:33.736Z,5.60
2022-11-27T07:28:33.679Z,5.60
2022-11-27T07:29:33.603Z,5.75
2022-11-27T07:30:33.599Z,5.80
2022-11-27T07:31:33.674Z,5.78
2022-11-27T07:32:33.594Z,5.81
2022-11-27T07:33:33.567Z,5.96
2022-11-27T07:34:33.566Z,5.98
2022-11-27T07:35:33.626Z,6.06
2022-11-27T07:36:33.652Z,6.06
2022-11-27T07:37:33.538Z,5.98
2022-11-27T07:38:33.607Z,5.85
2022-11-27T07:39:54.414Z,5.62
2022-11-27T07:40:35.519Z,5.69
2022-11-27T07:41:34.237Z,5.66
2022-11-27T07:42:38.334Z,5.65
2022-11-27T07:43:35.534Z,5.73
2022-11-27T07:44:33.479Z,5.77
2022-11-27T07:45:33.513Z,5.80
2022-11-27T07:46:33.459Z,5.87
2022-11-27T07:47:34.096Z,5.78
2022-11-27T07:48:33.387Z,5.98
2022-11-27T07:49:33.658Z,5.96
2022-11-27T07:50:33.361Z,6.08
2022-11-27T07:51:33.339Z,5.95
2022-11-27T07:52:38.042Z,6.10
2022-11-27T07:53:35.379Z,6.28
2022-11-27T07:54:33.436Z,6.57
2022-11-27T07:55:33.389Z,6.58
2022-11-27T07:56:33.644Z,6.65
2022-11-27T07:57:33.406Z,6.54
2022-11-27T07:58:33.333Z,6.69
2022-11-27T07:59:33.293Z,6.73
2022-11-27T08:00:33.413Z,6.65
2022-11-27T08:01:33.436Z,6.42
2022-11-27T08:02:33.288Z,6.06
2022-11-27T08:03:33.329Z,6.03
2022-11-27T08:04:33.256Z,5.93
2022-11-27T08:05:33.279Z,5.90
2022-11-27T08:06:33.213Z,5.88
2022-11-27T08:07:33.252Z,5.84
2022-11-27T08:08:33.268Z,5.73
2022-11-27T08:09:33.333Z,5.59
2022-11-27T08:10:33.206Z,5.42
2022-11-27T08:11:33.192Z,5.55
2022-11-27T08:28:46.541Z,6.14
2022-11-27T08:29:52.806Z,6.02
2022-11-27T08:30:47.675Z,5.88
2022-11-27T08:31:47.671Z,5.87
2022-11-27T08:32:47.801Z,5.70
2022-11-27T08:33:48.616Z,5.66
2022-11-27T08:34:47.573Z,5.52
2022-11-27T08:35:47.704Z,5.63
2022-11-27T08:36:47.733Z,5.66
2022-11-27T08:37:47.684Z,5.70
2022-11-27T08:38:47.726Z,5.55
2022-11-27T08:39:47.550Z,5.44
2022-11-27T08:40:47.561Z,5.66
2022-11-27T08:41:47.585Z,5.81
2022-11-27T08:42:47.536Z,5.69
2022-11-27T08:43:47.403Z,5.66
2022-11-27T08:44:48.402Z,5.60
2022-11-27T08:45:47.587Z,5.63
2022-11-27T08:46:47.492Z,5.62
2022-11-27T08:47:47.501Z,5.77
2022-11-27T08:48:47.735Z,5.58
2022-11-27T08:49:47.413Z,5.52
2022-11-27T08:50:47.392Z,5.47
2022-11-27T08:51:47.377Z,5.40
2022-11-27T08:52:47.381Z,5.44
2022-11-27T08:53:47.436Z,5.48
2022-11-27T08:54:47.427Z,5.49
2022-11-27T08:55:47.482Z,5.19
2022-11-27T08:56:47.397Z,5.22
2022-11-27T08:57:47.261Z,5.30
2022-11-27T08:58:47.374Z,5.24
2022-11-27T08:59:47.364Z,5.20
2022-11-27T09:00:47.780Z,5.20
2022-11-27T09:01:47.266Z,5.19
2022-11-27T09:02:47.332Z,5.32
2022-11-27T09:03:47.222Z,5.32
2022-11-27T09:04:48.052Z,5.33
2022-11-27T09:05:47.310Z,5.41
2022-11-27T09:06:47.224Z,5.51
2022-11-27T09:07:47.265Z,5.60
2022-11-27T09:08:47.182Z,5.65
2022-11-27T09:09:48.082Z,5.52
2022-11-27T09:10:47.115Z,5.66
2022-11-27T09:11:47.047Z,5.49
2022-11-27T09:12:47.028Z,5.74
2022-11-27T09:13:47.097Z,5.95
2022-11-27T09:14:46.986Z,6.21
2022-11-27T09:15:47.129Z,6.35
2022-11-27T09:16:47.150Z,6.45
2022-11-27T09:17:46.994Z,6.54
2022-11-27T09:18:47.170Z,6.69
2022-11-27T09:19:46.934Z,6.71
2022-11-27T09:20:48.410Z,6.81
2022-11-27T09:23:14.609Z,7.12
2022-11-27T09:23:16.437Z,7.30
2022-11-27T09:24:16.305Z,7.57
2022-11-27T09:25:16.366Z,7.77
2022-11-27T09:26:16.421Z,8.04
2022-11-27T09:27:16.253Z,8.54
2022-11-27T09:28:16.467Z,8.42
2022-11-27T09:29:16.237Z,8.50
2022-11-27T09:30:16.458Z,8.36
2022-11-27T09:31:16.196Z,8.46
2022-11-27T09:32:16.371Z,8.25
2022-11-27T09:33:16.218Z,7.86
2022-11-27T09:34:16.164Z,7.88
2022-11-27T09:35:16.203Z,8.14
2022-11-27T09:36:16.309Z,8.04
2022-11-27T09:37:16.328Z,7.32
2022-11-27T09:38:16.263Z,6.96
2022-11-27T09:39:16.109Z,7.11
2022-11-27T09:40:16.127Z,6.99
2022-11-27T09:41:16.032Z,7.26
2022-11-27T09:42:16.036Z,7.16
2022-11-27T09:43:16.167Z,6.72
2022-11-27T09:44:16.137Z,6.87
2022-11-27T09:45:15.985Z,6.91
2022-11-27T09:46:15.999Z,7.07
2022-11-27T09:47:16.045Z,7.16
2022-11-27T09:48:16.055Z,7.21
2022-11-27T09:49:15.985Z,7.32
2022-11-27T09:50:17.285Z,7.30
2022-11-27T09:51:16.061Z,7.30
2022-11-27T09:52:16.277Z,6.97
2022-11-27T09:53:16.354Z,6.97
2022-11-27T09:54:16.423Z,6.94
2022-11-27T09:55:15.879Z,6.79
2022-11-27T09:56:15.885Z,6.78
2022-11-27T09:57:15.893Z,6.69
2022-11-27T09:58:15.993Z,6.83
2022-11-27T09:59:15.873Z,6.75
2022-11-27T10:00:15.971Z,6.65
2022-11-27T10:01:15.944Z,6.46
2022-11-27T10:02:15.987Z,6.72
2022-11-27T10:03:15.936Z,6.79
2022-11-27T10:04:15.894Z,6.71
2022-11-27T10:05:16.602Z,6.97
2022-11-27T10:06:15.954Z,7.00
2022-11-27T10:07:16.817Z,7.07
2022-11-27T10:08:15.871Z,6.81
2022-11-27T10:09:15.762Z,6.61
2022-11-27T10:10:15.742Z,6.87
2022-11-27T10:11:15.770Z,6.89
2022-11-27T10:12:15.729Z,6.79
2022-11-27T10:13:15.741Z,6.54
2022-11-27T10:14:15.687Z,6.58
2022-11-27T10:15:15.754Z,6.58
2022-11-27T10:16:15.779Z,6.64
2022-11-27T10:17:15.687Z,6.54
2022-11-27T10:18:15.686Z,6.64
2022-11-27T10:19:16.130Z,6.63
2022-11-27T10:20:15.702Z,6.75
2022-11-27T10:21:15.606Z,6.89
2022-11-27T10:22:19.663Z,6.87
2022-11-27T10:23:17.603Z,6.86
2022-11-27T10:24:15.635Z,7.01
2022-11-27T10:25:16.170Z,7.01
2022-11-27T10:26:15.563Z,6.83
2022-11-27T10:27:16.411Z,6.83
2022-11-27T10:28:15.591Z,6.89
2022-11-27T10:29:15.587Z,6.89
2022-11-27T10:30:15.550Z,7.04
2022-11-27T10:31:15.515Z,7.00
2022-11-27T10:32:46.917Z,7.01
2022-11-27T10:33:17.531Z,7.12
2022-11-27T10:34:15.484Z,7.09
2022-11-27T10:35:15.595Z,6.90
2022-11-27T10:36:15.459Z,6.96
2022-11-27T10:37:15.597Z,6.79
2022-11-27T10:38:15.439Z,6.79
2022-11-27T10:39:15.375Z,6.91
2022-11-27T10:40:15.426Z,7.14
2022-11-27T10:41:47.627Z,7.24
2022-11-27T10:42:16.359Z,7.30
2022-11-27T10:43:16.280Z,7.30
2022-11-27T10:44:15.383Z,7.36
2022-11-27T10:45:15.411Z,7.48
2022-11-27T10:46:15.442Z,7.58
2022-11-27T10:47:15.298Z,7.63
2022-11-27T10:48:15.347Z,7.79
2022-11-27T10:49:15.352Z,7.77
2022-11-27T10:50:15.343Z,7.81
2022-11-27T10:51:15.283Z,7.91
2022-11-27T10:52:15.388Z,7.79
2022-11-27T10:53:15.304Z,7.71
2022-11-27T10:54:15.259Z,7.57
2022-11-27T10:55:15.572Z,7.67
2022-11-27T10:56:15.508Z,7.70
2022-11-27T10:57:15.222Z,7.82
2022-11-27T10:58:15.810Z,7.70
2022-11-27T10:59:15.204Z,7.74
2022-11-27T11:00:15.224Z,8.13
2022-11-27T11:01:15.340Z,8.60
2022-11-27T11:02:15.244Z,9.01
2022-11-27T11:03:15.168Z,9.08
2022-11-27T11:04:36.330Z,9.10
2022-11-27T11:05:35.036Z,8.86
2022-11-27T11:06:22.193Z,8.98
2022-11-27T11:07:17.126Z,9.06
2022-11-27T11:08:15.284Z,9.15
2022-11-27T11:09:15.109Z,9.38
2022-11-27T11:10:15.063Z,9.35
2022-11-27T11:11:15.080Z,9.35
2022-11-27T11:12:16.063Z,9.41
2022-11-27T11:13:15.136Z,9.30
2022-11-27T11:14:15.080Z,9.08
2022-11-27T11:15:15.000Z,8.76
2022-11-27T11:16:16.053Z,8.39
2022-11-27T11:17:15.104Z,8.45
2022-11-27T11:18:14.960Z,8.21
2022-11-27T11:19:15.034Z,8.13
2022-11-27T11:20:15.402Z,8.02
2022-11-27T11:21:15.155Z,8.09
2022-11-27T11:22:15.089Z,8.13
2022-11-27T11:23:14.967Z,8.22
2022-11-27T11:24:15.082Z,8.32
2022-11-27T11:25:15.003Z,8.45
2022-11-27T11:26:14.960Z,8.49
2022-11-27T11:27:14.988Z,8.50
2022-11-27T11:28:14.956Z,8.58
2022-11-27T11:29:14.900Z,8.45
2022-11-27T11:30:15.920Z,8.22
2022-11-27T11:31:15.919Z,8.17
2022-11-27T11:32:15.084Z,7.99
2022-11-27T11:33:14.867Z,7.99
2022-11-27T11:34:14.881Z,8.07
2022-11-27T11:35:15.060Z,8.17
2022-11-27T11:36:14.992Z,8.27
2022-11-27T11:40:22.711Z,8.43
2022-11-27T11:40:49.569Z,8.42
2022-11-27T11:41:49.311Z,8.12
2022-11-27T11:42:49.460Z,8.10
2022-11-27T11:43:49.126Z,7.96
2022-11-27T11:44:49.112Z,7.85
2022-11-27T11:45:49.240Z,7.86
2022-11-27T11:46:49.073Z,8.00
2022-11-27T11:47:49.108Z,8.06
2022-11-27T11:48:49.132Z,8.04
2022-11-27T11:49:49.045Z,7.88
2022-11-27T11:50:49.189Z,8.00
2022-11-27T11:51:49.073Z,8.17
2022-11-27T11:52:49.105Z,8.13
2022-11-27T11:53:49.044Z,7.88
2022-11-27T11:54:48.970Z,7.88
2022-11-27T11:55:49.067Z,7.84
2022-11-27T11:56:49.002Z,7.76
2022-11-27T11:57:49.029Z,7.70
2022-11-27T11:58:49.017Z,7.86
2022-11-27T11:59:48.994Z,7.79
2022-11-27T12:01:11.779Z,7.76
2022-11-27T12:01:50.983Z,7.81
2022-11-27T12:02:49.012Z,7.86
2022-11-27T12:03:48.925Z,7.81
2022-11-27T12:04:49.008Z,7.71
2022-11-27T12:05:48.923Z,7.84
2022-11-27T12:06:48.916Z,7.74
2022-11-27T12:07:52.273Z,7.74
2022-11-27T12:08:49.892Z,7.77
2022-11-27T12:09:48.824Z,7.54
2022-11-27T12:10:48.788Z,7.67
2022-11-27T12:11:48.967Z,7.69
2022-11-27T12:12:48.865Z,7.79
2022-11-27T12:13:48.868Z,7.81
2022-11-27T12:14:48.749Z,7.77
2022-11-27T12:15:48.869Z,7.88
2022-11-27T12:16:48.844Z,7.91
2022-11-27T12:17:48.711Z,7.85
2022-11-27T12:18:48.695Z,7.92
2022-11-27T12:19:48.748Z,7.99
2022-11-27T12:20:48.722Z,7.89
2022-11-27T12:21:48.669Z,7.81
2022-11-27T12:22:48.657Z,7.82
2022-11-27T12:23:48.717Z,7.85
2022-11-27T12:24:48.654Z,7.89
2022-11-27T12:25:48.625Z,7.85
2022-11-27T12:26:48.754Z,7.86
2022-11-27T12:27:48.705Z,7.96
2022-11-27T12:28:48.611Z,8.03
2022-11-27T12:29:48.589Z,8.03
2022-11-27T12:30:49.675Z,8.12
2022-11-27T12:31:48.707Z,8.02
2022-11-27T12:32:48.618Z,7.99
2022-11-27T12:33:48.598Z,7.81
2022-11-27T12:34:48.521Z,7.88
2022-11-27T12:35:48.585Z,7.91
2022-11-27T12:36:48.614Z,7.91
2022-11-27T12:37:48.529Z,7.81
2022-11-27T12:38:48.626Z,7.82
2022-11-27T12:39:48.466Z,7.92
2022-11-27T12:40:48.540Z,7.94
2022-11-27T12:41:48.507Z,7.89
2022-11-27T12:42:48.471Z,8.06
2022-11-27T12:43:48.464Z,8.12
2022-11-27T12:44:48.448Z,8.09
2022-11-27T12:45:48.665Z,8.24
2022-11-27T12:46:48.415Z,8.20
2022-11-27T12:47:48.474Z,8.27
2022-11-27T12:48:48.339Z,8.14
2022-11-27T12:49:48.351Z,8.13
2022-11-27T12:50:48.420Z,8.20
2022-11-27T12:51:48.438Z,8.14
2022-11-27T12:52:48.386Z,8.22
2022-11-27T12:53:48.376Z,8.12
2022-11-27T12:54:48.315Z,8.10
2022-11-27T12:55:48.380Z,8.12
2022-11-27T12:56:48.365Z,8.06
2022-11-27T12:57:48.260Z,8.04
2022-11-27T12:58:48.358Z,8.18
2022-11-27T12:59:53.288Z,8.13
2022-11-27T13:00:55.261Z,8.17
2022-11-27T13:01:49.473Z,8.18
2022-11-27T13:02:48.227Z,8.13
2022-11-27T13:03:48.168Z,8.12
2022-11-27T13:04:48.256Z,8.03
2022-11-27T13:05:48.205Z,8.17
2022-11-27T13:06:48.200Z,8.24
2022-11-27T13:07:48.326Z,8.24
2022-11-27T13:08:52.224Z,8.20
2022-11-27T13:09:48.247Z,8.17
2022-11-27T13:10:48.171Z,8.20
2022-11-27T13:11:48.135Z,8.12
2022-11-27T13:12:48.185Z,8.06
2022-11-27T13:13:48.036Z,8.10
2022-11-27T13:14:52.556Z,8.09
2022-11-27T13:15:49.073Z,8.04
2022-11-27T13:16:48.121Z,8.14
2022-11-27T13:17:48.098Z,8.13
2022-11-27T13:18:48.071Z,8.17
2022-11-27T13:19:48.008Z,8.27
2022-11-27T13:20:52.093Z,8.25
2022-11-27T13:21:48.021Z,8.20
2022-11-27T13:22:48.026Z,8.22
2022-11-27T13:23:48.006Z,8.36
2022-11-27T13:24:48.065Z,8.28
2022-11-27T13:25:47.917Z,8.43
2022-11-27T13:26:47.968Z,8.42
2022-11-27T13:27:47.917Z,8.27
2022-11-27T13:28:47.989Z,8.22
2022-11-27T13:29:47.933Z,8.20
2022-11-27T13:30:47.956Z,8.20
2022-11-27T13:31:47.969Z,8.07
2022-11-27T13:32:48.032Z,8.07
2022-11-27T13:33:47.944Z,8.09
2022-11-27T13:34:47.922Z,8.12
2022-11-27T13:35:47.833Z,8.10
2022-11-27T13:36:47.942Z,8.14
2022-11-27T13:37:47.822Z,8.10